Terminal Aerodrome Forecast
Issued by NWS Quad Cities IA IL

Home | Current Version | Previous Version | Text Only | Print | Product List | Glossary On
Versions: 1 2 3 4 5 6 7 8 9 10 11 12 13 14 15 16 17 18 19 20 21 22
450
FTUS43 KDVN 051011 AAA
TAFDBQ
TAF AMD
KDBQ 051011Z 0510/0606 33009KT P6SM OVC015
     FM051200 21004KT P6SM BKN150
     FM052300 17006KT P6SM OVC060
     FM060300 20010KT P6SM VCSH OVC035=

USA.gov is the U.S. government's official web portal to all federal, state and local government web resources and services.